sensor_id;sensor_type;location;lat;lon;timestamp;pressure;altitude;pressure_sealevel;temperature;humidity
8585;BME280;7180;52.742;11.420;2023-05-11T00:00:32;100910.47;;;12.77;100.00
8585;BME280;7180;52.742;11.420;2023-05-11T00:02:57;100910.84;;;12.71;100.00
8585;BME280;7180;52.742;11.420;2023-05-11T00:05:23;100919.06;;;12.67;100.00
8585;BME280;7180;52.742;11.420;2023-05-11T00:07:48;100914.91;;;12.63;100.00
8585;BME280;7180;52.742;11.420;2023-05-11T00:10:13;100911.59;;;12.59;100.00
8585;BME280;7180;52.742;11.420;2023-05-11T00:12:39;100915.38;;;12.55;100.00
8585;BME280;7180;52.742;11.420;2023-05-11T00:15:04;100909.53;;;12.50;100.00
8585;BME280;7180;52.742;11.420;2023-05-11T00:17:30;100912.47;;;12.45;100.00
8585;BME280;7180;52.742;11.420;2023-05-11T00:19:55;100919.69;;;12.42;100.00
8585;BME280;7180;52.742;11.420;2023-05-11T00:22:20;100914.63;;;12.39;100.00
8585;BME280;7180;52.742;11.420;2023-05-11T00:24:46;100913.50;;;12.29;100.00
8585;BME280;7180;52.742;11.420;2023-05-11T00:27:11;100912.53;;;12.30;100.00
8585;BME280;7180;52.742;11.420;2023-05-11T00:29:36;100909.13;;;12.28;100.00
8585;BME280;7180;52.742;11.420;2023-05-11T00:32:02;100906.91;;;12.22;100.00
8585;BME280;7180;52.742;11.420;2023-05-11T00:34:27;100904.16;;;12.23;100.00
8585;BME280;7180;52.742;11.420;2023-05-11T00:36:52;100902.53;;;12.21;100.00
8585;BME280;7180;52.742;11.420;2023-05-11T00:39:18;100906.13;;;12.20;100.00
8585;BME280;7180;52.742;11.420;2023-05-11T00:41:43;100905.28;;;12.19;100.00
8585;BME280;7180;52.742;11.420;2023-05-11T00:44:09;100905.00;;;12.24;100.00
8585;BME280;7180;52.742;11.420;2023-05-11T00:46:35;100899.75;;;12.24;100.00
8585;BME280;7180;52.742;11.420;2023-05-11T00:49:01;100904.81;;;12.27;100.00
8585;BME280;7180;52.742;11.420;2023-05-11T00:51:27;100907.25;;;12.30;100.00
8585;BME280;7180;52.742;11.420;2023-05-11T00:53:52;100908.78;;;12.34;100.00
8585;BME280;7180;52.742;11.420;2023-05-11T00:56:17;100895.59;;;12.34;100.00
8585;BME280;7180;52.742;11.420;2023-05-11T00:58:44;100897.28;;;12.35;100.00
8585;BME280;7180;52.742;11.420;2023-05-11T01:01:09;100892.09;;;12.33;100.00
8585;BME280;7180;52.742;11.420;2023-05-11T01:03:35;100891.34;;;12.31;100.00
8585;BME280;7180;52.742;11.420;2023-05-11T01:09:12;100894.63;;;12.35;100.00
8585;BME280;7180;52.742;11.420;2023-05-11T01:14:44;100891.19;;;12.34;100.00
8585;BME280;7180;52.742;11.420;2023-05-11T01:17:23;100891.28;;;12.33;100.00
8585;BME280;7180;52.742;11.420;2023-05-11T01:20:02;100885.03;;;12.34;100.00
8585;BME280;7180;52.742;11.420;2023-05-11T01:22:42;100886.06;;;12.31;100.00
8585;BME280;7180;52.742;11.420;2023-05-11T01:31:06;100884.03;;;12.36;100.00
8585;BME280;7180;52.742;11.420;2023-05-11T01:33:34;100885.72;;;12.37;100.00
8585;BME280;7180;52.742;11.420;2023-05-11T01:36:04;100881.44;;;12.35;100.00
8585;BME280;7180;52.742;11.420;2023-05-11T01:38:33;100888.44;;;12.36;100.00
8585;BME280;7180;52.742;11.420;2023-05-11T01:41:02;100893.63;;;12.37;100.00
8585;BME280;7180;52.742;11.420;2023-05-11T01:43:32;100889.09;;;12.39;100.00
8585;BME280;7180;52.742;11.420;2023-05-11T01:46:00;100894.38;;;12.39;100.00
8585;BME280;7180;52.742;11.420;2023-05-11T01:48:28;100885.03;;;12.34;100.00
8585;BME280;7180;52.742;11.420;2023-05-11T01:50:59;100888.53;;;12.34;100.00
8585;BME280;7180;52.742;11.420;2023-05-11T01:53:27;100887.59;;;12.35;100.00
8585;BME280;7180;52.742;11.420;2023-05-11T01:55:54;100886.72;;;12.35;100.00
8585;BME280;7180;52.742;11.420;2023-05-11T01:58:23;100888.44;;;12.36;100.00
8585;BME280;7180;52.742;11.420;2023-05-11T02:00:50;100886.56;;;12.38;100.00
8585;BME280;7180;52.742;11.420;2023-05-11T02:03:17;100883.44;;;12.31;100.00
8585;BME280;7180;52.742;11.420;2023-05-11T02:05:45;100890.31;;;12.34;100.00
8585;BME280;7180;52.742;11.420;2023-05-11T02:08:13;100885.25;;;12.31;100.00
8585;BME280;7180;52.742;11.420;2023-05-11T02:10:40;100887.94;;;12.29;100.00
8585;BME280;7180;52.742;11.420;2023-05-11T02:13:07;100890.31;;;12.34;100.00
8585;BME280;7180;52.742;11.420;2023-05-11T02:15:36;100894.38;;;12.39;100.00
8585;BME280;7180;52.742;11.420;2023-05-11T02:18:09;100896.06;;;12.40;100.00
8585;BME280;7180;52.742;11.420;2023-05-11T02:20:37;100889.75;;;12.43;100.00
8585;BME280;7180;52.742;11.420;2023-05-11T02:23:04;100887.03;;;12.44;100.00
8585;BME280;7180;52.742;11.420;2023-05-11T02:25:32;100885.34;;;12.43;100.00
8585;BME280;7180;52.742;11.420;2023-05-11T02:27:57;100893.72;;;12.50;100.00
8585;BME280;7180;52.742;11.420;2023-05-11T02:30:26;100895.31;;;12.52;100.00
8585;BME280;7180;52.742;11.420;2023-05-11T02:32:53;100884.78;;;12.52;100.00
8585;BME280;7180;52.742;11.420;2023-05-11T02:35:27;100893.44;;;12.55;100.00
8585;BME280;7180;52.742;11.420;2023-05-11T02:37:55;100908.22;;;12.57;100.00
8585;BME280;7180;52.742;11.420;2023-05-11T02:40:27;100903.69;;;12.59;100.00
8585;BME280;7180;52.742;11.420;2023-05-11T02:42:57;100900.84;;;12.62;100.00
8585;BME280;7180;52.742;11.420;2023-05-11T02:45:23;100901.63;;;12.64;100.00
8585;BME280;7180;52.742;11.420;2023-05-11T02:47:53;100893.53;;;12.67;100.00
8585;BME280;7180;52.742;11.420;2023-05-11T02:50:21;100896.06;;;12.69;100.00
8585;BME280;7180;52.742;11.420;2023-05-11T02:52:50;100904.00;;;12.69;100.00
8585;BME280;7180;52.742;11.420;2023-05-11T02:55:19;100902.16;;;12.69;100.00
8585;BME280;7180;52.742;11.420;2023-05-11T02:57:45;100901.63;;;12.64;100.00
8585;BME280;7180;52.742;11.420;2023-05-11T03:00:11;100910.28;;;12.66;100.00
8585;BME280;7180;52.742;11.420;2023-05-11T03:02:37;100905.97;;;12.65;100.00
8585;BME280;7180;52.742;11.420;2023-05-11T03:05:02;100912.25;;;12.63;100.00
8585;BME280;7180;52.742;11.420;2023-05-11T03:07:30;100916.88;;;12.59;100.00
8585;BME280;7180;52.742;11.420;2023-05-11T03:09:55;100914.63;;;12.53;100.00
8585;BME280;7180;52.742;11.420;2023-05-11T03:12:21;100908.59;;;12.51;100.00
8585;BME280;7180;52.742;11.420;2023-05-11T03:14:47;100908.59;;;12.51;100.00
8585;BME280;7180;52.742;11.420;2023-05-11T03:17:14;100910.28;;;12.52;100.00
8585;BME280;7180;52.742;11.420;2023-05-11T03:19:40;100909.34;;;12.53;100.00
8585;BME280;7180;52.742;11.420;2023-05-11T03:22:07;100912.84;;;12.53;100.00
8585;BME280;7180;52.742;11.420;2023-05-11T03:24:33;100916.31;;;12.54;100.00
8585;BME280;7180;52.742;11.420;2023-05-11T03:27:00;100915.47;;;12.53;100.00
8585;BME280;7180;52.742;11.420;2023-05-11T03:29:26;100921.19;;;12.60;100.00
8585;BME280;7180;52.742;11.420;2023-05-11T03:31:53;100923.69;;;12.63;100.00
8585;BME280;7180;52.742;11.420;2023-05-11T03:34:19;100910.50;;;12.63;100.00
8585;BME280;7180;52.742;11.420;2023-05-11T03:36:47;100916.69;;;12.62;100.00
8585;BME280;7180;52.742;11.420;2023-05-11T03:39:14;100913.69;;;12.68;100.00
8585;BME280;7180;52.742;11.420;2023-05-11T03:41:39;100915.94;;;12.74;100.00
8585;BME280;7180;52.742;11.420;2023-05-11T03:44:07;100911.31;;;12.78;100.00
8585;BME280;7180;52.742;11.420;2023-05-11T03:46:36;100912.63;;;12.85;100.00
8585;BME280;7180;52.742;11.420;2023-05-11T03:49:04;100905.66;;;12.84;100.00
8585;BME280;7180;52.742;11.420;2023-05-11T03:51:31;100905.84;;;12.81;100.00
8585;BME280;7180;52.742;11.420;2023-05-11T03:53:57;100902.44;;;12.79;100.00
8585;BME280;7180;52.742;11.420;2023-05-11T03:56:22;100902.19;;;12.83;100.00
8585;BME280;7180;52.742;11.420;2023-05-11T03:58:48;100892.22;;;12.74;100.00
8585;BME280;7180;52.742;11.420;2023-05-11T04:01:14;100888.06;;;12.70;100.00
8585;BME280;7180;52.742;11.420;2023-05-11T04:03:49;100894.09;;;12.72;100.00
8585;BME280;7180;52.742;11.420;2023-05-11T04:06:16;100894.84;;;12.74;100.00
8585;BME280;7180;52.742;11.420;2023-05-11T04:08:41;100901.59;;;12.78;100.00
8585;BME280;7180;52.742;11.420;2023-05-11T04:11:07;100901.22;;;12.84;100.00
8585;BME280;7180;52.742;11.420;2023-05-11T04:13:33;100904.81;;;12.83;100.00
8585;BME280;7180;52.742;11.420;2023-05-11T04:15:58;100899.91;;;12.77;100.00
8585;BME280;7180;52.742;11.420;2023-05-11T04:18:23;100891.63;;;12.69;100.00
8585;BME280;7180;52.742;11.420;2023-05-11T04:20:49;100895.41;;;12.65;100.00
8585;BME280;7180;52.742;11.420;2023-05-11T04:23:14;100899.63;;;12.68;100.00
8585;BME280;7180;52.742;11.420;2023-05-11T04:25:40;100906.63;;;12.69;100.00
8585;BME280;7180;52.742;11.420;2023-05-11T04:28:05;100906.41;;;12.72;100.00
8585;BME280;7180;52.742;11.420;2023-05-11T04:30:31;100905.41;;;12.74;100.00
8585;BME280;7180;52.742;11.420;2023-05-11T04:32:56;100911.31;;;12.78;100.00
8585;BME280;7180;52.742;11.420;2023-05-11T04:35:21;100907.84;;;12.77;100.00
8585;BME280;7180;52.742;11.420;2023-05-11T04:37:47;100904.16;;;12.80;100.00
8585;BME280;7180;52.742;11.420;2023-05-11T04:40:13;100912.44;;;12.88;100.00
8585;BME280;7180;52.742;11.420;2023-05-11T04:42:38;100911.41;;;12.90;100.00
8585;BME280;7180;52.742;11.420;2023-05-11T04:45:04;100914.50;;;12.97;100.00
8585;BME280;7180;52.742;11.420;2023-05-11T04:47:29;100911.50;;;13.03;100.00
8585;BME280;7180;52.742;11.420;2023-05-11T04:49:55;100914.50;;;13.11;100.00
8585;BME280;7180;52.742;11.420;2023-05-11T04:52:20;100911.78;;;13.12;100.00
8585;BME280;7180;52.742;11.420;2023-05-11T04:54:45;100904.59;;;13.14;100.00
8585;BME280;7180;52.742;11.420;2023-05-11T04:57:11;100904.00;;;13.23;100.00
8585;BME280;7180;52.742;11.420;2023-05-11T04:59:36;100903.63;;;13.29;100.00
8585;BME280;7180;52.742;11.420;2023-05-11T05:02:01;100909.53;;;13.33;100.00
8585;BME280;7180;52.742;11.420;2023-05-11T05:04:26;100901.13;;;13.40;100.00
8585;BME280;7180;52.742;11.420;2023-05-11T05:06:52;100905.69;;;13.51;100.00
8585;BME280;7180;52.742;11.420;2023-05-11T05:09:17;100913.06;;;13.73;100.00
8585;BME280;7180;52.742;11.420;2023-05-11T05:11:42;100904.75;;;13.79;100.00
8585;BME280;7180;52.742;11.420;2023-05-11T05:14:08;100900.94;;;13.83;100.00
8585;BME280;7180;52.742;11.420;2023-05-11T05:16:33;100892.69;;;13.87;100.00
8585;BME280;7180;52.742;11.420;2023-05-11T05:18:58;100891.34;;;14.07;100.00
8585;BME280;7180;52.742;11.420;2023-05-11T05:21:24;100879.09;;;13.93;100.00
8585;BME280;7180;52.742;11.420;2023-05-11T05:23:49;100874.31;;;13.98;100.00
8585;BME280;7180;52.742;11.420;2023-05-11T05:26:15;100884.50;;;14.04;100.00
8585;BME280;7180;52.742;11.420;2023-05-11T05:28:40;100875.06;;;13.88;100.00
8585;BME280;7180;52.742;11.420;2023-05-11T05:31:05;100878.63;;;13.99;100.00
8585;BME280;7180;52.742;11.420;2023-05-11T05:33:31;100897.88;;;14.28;100.00
8585;BME280;7180;52.742;11.420;2023-05-11T05:35:56;100894.38;;;14.27;100.00
8585;BME280;7180;52.742;11.420;2023-05-11T05:38:21;100904.50;;;14.46;100.00
8585;BME280;7180;52.742;11.420;2023-05-11T05:40:47;100885.16;;;14.33;100.00
8585;BME280;7180;52.742;11.420;2023-05-11T05:43:12;100889.47;;;14.59;100.00
8585;BME280;7180;52.742;11.420;2023-05-11T05:45:37;100885.03;;;14.47;100.00
8585;BME280;7180;52.742;11.420;2023-05-11T05:48:03;100884.19;;;14.59;100.00
8585;BME280;7180;52.742;11.420;2023-05-11T05:50:30;100877.63;;;14.52;100.00
8585;BME280;7180;52.742;11.420;2023-05-11T05:52:55;100897.84;;;14.66;100.00
8585;BME280;7180;52.742;11.420;2023-05-11T05:55:21;100898.00;;;14.88;100.00
8585;BME280;7180;52.742;11.420;2023-05-11T05:57:46;100876.75;;;14.64;100.00
8585;BME280;7180;52.742;11.420;2023-05-11T06:00:12;100893.28;;;14.68;100.00
8585;BME280;7180;52.742;11.420;2023-05-11T06:02:37;100896.75;;;14.68;100.00
8585;BME280;7180;52.742;11.420;2023-05-11T06:05:03;100902.41;;;14.64;100.00
8585;BME280;7180;52.742;11.420;2023-05-11T06:07:28;100906.41;;;14.69;100.00
8585;BME280;7180;52.742;11.420;2023-05-11T06:09:54;100922.91;;;14.85;100.00
8585;BME280;7180;52.742;11.420;2023-05-11T06:12:19;100916.00;;;14.95;100.00
8585;BME280;7180;52.742;11.420;2023-05-11T06:14:44;100902.75;;;14.95;100.00
8585;BME280;7180;52.742;11.420;2023-05-11T06:17:09;100907.66;;;14.89;100.00
8585;BME280;7180;52.742;11.420;2023-05-11T06:19:35;100918.22;;;15.01;100.00
8585;BME280;7180;52.742;11.420;2023-05-11T06:22:01;100922.31;;;15.18;100.00
8585;BME280;7180;52.742;11.420;2023-05-11T06:24:26;100910.50;;;15.22;100.00
8585;BME280;7180;52.742;11.420;2023-05-11T06:26:51;100883.19;;;15.21;100.00
8585;BME280;7180;52.742;11.420;2023-05-11T06:29:16;100897.09;;;15.48;100.00
8585;BME280;7180;52.742;11.420;2023-05-11T06:31:44;100870.88;;;15.20;100.00
8585;BME280;7180;52.742;11.420;2023-05-11T06:34:09;100875.81;;;15.61;100.00
8585;BME280;7180;52.742;11.420;2023-05-11T06:36:35;100852.91;;;15.60;100.00
8585;BME280;7180;52.742;11.420;2023-05-11T06:39:00;100855.28;;;15.76;100.00
8585;BME280;7180;52.742;11.420;2023-05-11T06:41:25;100850.00;;;15.87;100.00
8585;BME280;7180;52.742;11.420;2023-05-11T06:43:51;100840.81;;;15.80;100.00
8585;BME280;7180;52.742;11.420;2023-05-11T06:46:16;100834.31;;;15.84;100.00
8585;BME280;7180;52.742;11.420;2023-05-11T06:48:42;100837.25;;;15.92;100.00
8585;BME280;7180;52.742;11.420;2023-05-11T06:51:11;100823.97;;;15.92;100.00
8585;BME280;7180;52.742;11.420;2023-05-11T06:53:37;100820.00;;;15.97;100.00
8585;BME280;7180;52.742;11.420;2023-05-11T06:56:02;100803.63;;;16.25;100.00
8585;BME280;7180;52.742;11.420;2023-05-11T06:58:28;100794.09;;;16.45;100.00
8585;BME280;7180;52.742;11.420;2023-05-11T07:00:53;100776.97;;;16.38;100.00
8585;BME280;7180;52.742;11.420;2023-05-11T07:03:19;100780.34;;;16.29;100.00
8585;BME280;7180;52.742;11.420;2023-05-11T07:05:44;100783.72;;;16.31;100.00
8585;BME280;7180;52.742;11.420;2023-05-11T07:08:09;100772.03;;;16.22;100.00
8585;BME280;7180;52.742;11.420;2023-05-11T07:10:35;100817.50;;;16.40;100.00
8585;BME280;7180;52.742;11.420;2023-05-11T07:13:00;100779.25;;;15.98;100.00
8585;BME280;7180;52.742;11.420;2023-05-11T07:15:25;100833.31;;;15.63;100.00
8585;BME280;7180;52.742;11.420;2023-05-11T07:17:51;100882.03;;;15.84;100.00
8585;BME280;7180;52.742;11.420;2023-05-11T07:20:17;100865.06;;;16.54;100.00
8585;BME280;7180;52.742;11.420;2023-05-11T07:22:43;100809.06;;;16.35;100.00
8585;BME280;7180;52.742;11.420;2023-05-11T07:25:08;100825.03;;;16.57;100.00
8585;BME280;7180;52.742;11.420;2023-05-11T07:27:34;100800.97;;;16.81;100.00
8585;BME280;7180;52.742;11.420;2023-05-11T07:29:59;100813.97;;;17.26;100.00
8585;BME280;7180;52.742;11.420;2023-05-11T07:32:25;100767.66;;;18.32;97.72
8585;BME280;7180;52.742;11.420;2023-05-11T07:34:50;100732.59;;;17.67;96.85
8585;BME280;7180;52.742;11.420;2023-05-11T07:37:15;100765.97;;;18.61;96.08
8585;BME280;7180;52.742;11.420;2023-05-11T07:39:40;100631.06;;;19.27;91.60
8585;BME280;7180;52.742;11.420;2023-05-11T07:42:06;100567.09;;;19.36;88.88
8585;BME280;7180;52.742;11.420;2023-05-11T07:44:31;100598.59;;;19.50;88.51
8585;BME280;7180;52.742;11.420;2023-05-11T07:46:56;100552.16;;;19.53;87.43
8585;BME280;7180;52.742;11.420;2023-05-11T07:49:22;100592.41;;;19.50;88.06
8585;BME280;7180;52.742;11.420;2023-05-11T07:51:48;100559.47;;;20.23;86.15
8585;BME280;7180;52.742;11.420;2023-05-11T07:54:13;100490.94;;;20.14;84.50
8585;BME280;7180;52.742;11.420;2023-05-11T07:56:39;100469.06;;;19.93;83.54
8585;BME280;7180;52.742;11.420;2023-05-11T07:59:04;100459.22;;;20.11;83.19
8585;BME280;7180;52.742;11.420;2023-05-11T08:01:29;100491.59;;;20.69;82.87
8585;BME280;7180;52.742;11.420;2023-05-11T08:03:55;100419.56;;;19.81;82.15
8585;BME280;7180;52.742;11.420;2023-05-11T08:06:20;100517.69;;;19.32;84.54
8585;BME280;7180;52.742;11.420;2023-05-11T08:08:46;100507.75;;;18.88;84.85
8585;BME280;7180;52.742;11.420;2023-05-11T08:11:11;100573.38;;;18.60;86.39
8585;BME280;7180;52.742;11.420;2023-05-11T08:13:36;100608.78;;;18.99;86.82
8585;BME280;7180;52.742;11.420;2023-05-11T08:16:02;100576.78;;;19.18;85.88
8585;BME280;7180;52.742;11.420;2023-05-11T08:18:27;100506.66;;;19.08;84.88
8585;BME280;7180;52.742;11.420;2023-05-11T08:20:52;100631.81;;;18.81;87.34
8585;BME280;7180;52.742;11.420;2023-05-11T08:23:18;100628.63;;;19.52;86.80
8585;BME280;7180;52.742;11.420;2023-05-11T08:25:51;100599.72;;;19.48;86.65
8585;BME280;7180;52.742;11.420;2023-05-11T08:28:18;100506.38;;;20.20;83.87
8585;BME280;7180;52.742;11.420;2023-05-11T08:30:43;100453.97;;;20.62;82.21
8585;BME280;7180;52.742;11.420;2023-05-11T08:33:09;100436.38;;;20.77;81.44
8585;BME280;7180;52.742;11.420;2023-05-11T08:35:34;100388.19;;;21.28;79.77
8585;BME280;7180;52.742;11.420;2023-05-11T08:38:00;100323.16;;;21.28;78.10
8585;BME280;7180;52.742;11.420;2023-05-11T08:40:26;100259.66;;;21.22;77.14
8585;BME280;7180;52.742;11.420;2023-05-11T08:42:54;100253.66;;;20.70;77.41
8585;BME280;7180;52.742;11.420;2023-05-11T08:45:21;100311.19;;;20.98;77.85
8585;BME280;7180;52.742;11.420;2023-05-11T08:47:47;100228.06;;;21.49;76.27
8585;BME280;7180;52.742;11.420;2023-05-11T08:50:13;100183.94;;;21.45;75.17
8585;BME280;7180;52.742;11.420;2023-05-11T08:52:39;100280.75;;;20.83;77.13
8585;BME280;7180;52.742;11.420;2023-05-11T08:55:06;100175.53;;;20.84;76.13
8585;BME280;7180;52.742;11.420;2023-05-11T08:57:33;100309.63;;;20.38;78.17
8585;BME280;7180;52.742;11.420;2023-05-11T09:00:01;100377.78;;;20.07;79.79
8585;BME280;7180;52.742;11.420;2023-05-11T09:02:27;100206.63;;;20.93;76.33
8585;BME280;7180;52.742;11.420;2023-05-11T09:04:53;100175.25;;;21.03;75.67
8585;BME280;7180;52.742;11.420;2023-05-11T09:07:20;100235.88;;;19.86;77.95
8585;BME280;7180;52.742;11.420;2023-05-11T09:09:48;100216.09;;;20.22;77.27
8585;BME280;7180;52.742;11.420;2023-05-11T09:12:15;100204.66;;;20.12;77.27
8585;BME280;7180;52.742;11.420;2023-05-11T09:14:40;100212.28;;;20.32;77.06
8585;BME280;7180;52.742;11.420;2023-05-11T09:17:06;100229.28;;;20.65;76.87
8585;BME280;7180;52.742;11.420;2023-05-11T09:19:31;100185.88;;;20.87;76.04
8585;BME280;7180;52.742;11.420;2023-05-11T09:21:58;100172.38;;;20.23;76.85
8585;BME280;7180;52.742;11.420;2023-05-11T09:24:23;100259.09;;;20.19;77.94
8585;BME280;7180;52.742;11.420;2023-05-11T09:26:48;100213.94;;;20.75;76.47
8585;BME280;7180;52.742;11.420;2023-05-11T09:29:18;100203.25;;;20.83;76.34
8585;BME280;7180;52.742;11.420;2023-05-11T09:31:45;100089.28;;;20.18;75.86
8585;BME280;7180;52.742;11.420;2023-05-11T09:34:11;100116.06;;;20.82;74.58
8585;BME280;7180;52.742;11.420;2023-05-11T09:36:38;100043.56;;;21.33;72.91
8585;BME280;7180;52.742;11.420;2023-05-11T09:39:04;100030.53;;;21.22;73.26
8585;BME280;7180;52.742;11.420;2023-05-11T09:41:30;99983.34;;;20.58;73.51
8585;BME280;7180;52.742;11.420;2023-05-11T09:44:14;99934.81;;;21.18;71.64
8585;BME280;7180;52.742;11.420;2023-05-11T09:46:42;100032.88;;;21.33;72.57
8585;BME280;7180;52.742;11.420;2023-05-11T09:49:08;99793.75;;;20.89;70.52
8585;BME280;7180;52.742;11.420;2023-05-11T09:51:36;100047.44;;;20.67;73.01
8585;BME280;7180;52.742;11.420;2023-05-11T09:54:15;100009.91;;;21.47;71.96
8585;BME280;7180;52.742;11.420;2023-05-11T09:56:46;99862.31;;;21.43;70.50
8585;BME280;7180;52.742;11.420;2023-05-11T09:59:14;99919.03;;;21.39;71.17
8585;BME280;7180;52.742;11.420;2023-05-11T10:01:40;99974.13;;;21.87;71.03
8585;BME280;7180;52.742;11.420;2023-05-11T10:04:05;100006.91;;;22.42;71.28
8585;BME280;7180;52.742;11.420;2023-05-11T10:06:49;99761.38;;;22.49;67.88
8585;BME280;7180;52.742;11.420;2023-05-11T10:09:18;99805.63;;;21.71;69.24
8585;BME280;7180;52.742;11.420;2023-05-11T10:11:45;99854.09;;;21.22;70.44
8585;BME280;7180;52.742;11.420;2023-05-11T10:14:12;99724.72;;;21.68;67.93
8585;BME280;7180;52.742;11.420;2023-05-11T10:16:40;99908.94;;;21.49;70.54
8585;BME280;7180;52.742;11.420;2023-05-11T10:19:06;99806.19;;;21.66;69.26
8585;BME280;7180;52.742;11.420;2023-05-11T10:21:33;99740.69;;;21.77;68.01
8585;BME280;7180;52.742;11.420;2023-05-11T10:24:00;99636.41;;;21.68;67.19
8585;BME280;7180;52.742;11.420;2023-05-11T10:26:26;99663.97;;;21.92;66.76
8585;BME280;7180;52.742;11.420;2023-05-11T10:28:52;99464.41;;;21.53;65.27
8585;BME280;7180;52.742;11.420;2023-05-11T10:31:19;99520.09;;;21.64;65.12
8585;BME280;7180;52.742;11.420;2023-05-11T10:33:49;99544.81;;;21.23;66.22
8585;BME280;7180;52.742;11.420;2023-05-11T10:36:16;99601.75;;;21.23;66.71
8585;BME280;7180;52.742;11.420;2023-05-11T10:38:42;99588.16;;;21.33;66.20
8585;BME280;7180;52.742;11.420;2023-05-11T10:41:23;99666.78;;;21.24;67.32
8585;BME280;7180;52.742;11.420;2023-05-11T10:44:27;99677.13;;;21.64;66.90
8585;BME280;7180;52.742;11.420;2023-05-11T10:47:22;99703.75;;;21.80;66.95
8585;BME280;7180;52.742;11.420;2023-05-11T10:50:15;99791.97;;;21.65;68.26
8585;BME280;7180;52.742;11.420;2023-05-11T10:53:28;99638.25;;;21.39;66.99
8585;BME280;7180;52.742;11.420;2023-05-11T10:56:23;99805.31;;;21.20;69.01
8585;BME280;7180;52.742;11.420;2023-05-11T10:59:08;99763.56;;;21.19;68.62
8585;BME280;7180;52.742;11.420;2023-05-11T11:01:40;99726.91;;;21.88;67.02
8585;BME280;7180;52.742;11.420;2023-05-11T11:04:08;99718.16;;;22.37;66.41
8585;BME280;7180;52.742;11.420;2023-05-11T11:06:35;99539.53;;;22.17;64.83
8585;BME280;7180;52.742;11.420;2023-05-11T11:09:03;99412.34;;;21.35;64.57
8585;BME280;7180;52.742;11.420;2023-05-11T11:11:37;99442.44;;;21.58;64.14
8585;BME280;7180;52.742;11.420;2023-05-11T11:14:04;99386.09;;;22.16;61.95
8585;BME280;7180;52.742;11.420;2023-05-11T11:16:31;99223.56;;;22.38;59.73
8585;BME280;7180;52.742;11.420;2023-05-11T11:21:54;99395.22;;;22.22;62.32
8585;BME280;7180;52.742;11.420;2023-05-11T11:24:41;99327.13;;;22.31;61.48
8585;BME280;7180;52.742;11.420;2023-05-11T11:27:08;99243.59;;;22.48;60.27
8585;BME280;7180;52.742;11.420;2023-05-11T11:29:35;99063.25;;;22.22;58.31
8585;BME280;7180;52.742;11.420;2023-05-11T11:34:49;99082.88;;;21.95;59.28
8585;BME280;7180;52.742;11.420;2023-05-11T11:37:16;99249.41;;;22.24;59.97
8585;BME280;7180;52.742;11.420;2023-05-11T11:42:13;99126.31;;;21.97;59.43
8585;BME280;7180;52.742;11.420;2023-05-11T11:44:41;99244.41;;;21.45;61.17
8585;BME280;7180;52.742;11.420;2023-05-11T11:49:36;99200.63;;;21.74;59.86
8585;BME280;7180;52.742;11.420;2023-05-11T11:52:02;99130.41;;;21.93;58.90
8585;BME280;7180;52.742;11.420;2023-05-11T11:54:45;99183.44;;;21.83;60.08
8585;BME280;7180;52.742;11.420;2023-05-11T11:59:55;99151.31;;;21.83;59.12
8585;BME280;7180;52.742;11.420;2023-05-11T12:02:21;99174.88;;;21.94;59.10
8585;BME280;7180;52.742;11.420;2023-05-11T12:04:58;99150.84;;;22.41;58.33
8585;BME280;7180;52.742;11.420;2023-05-11T12:07:25;99112.44;;;22.68;57.65
8585;BME280;7180;52.742;11.420;2023-05-11T12:09:51;98981.41;;;22.00;57.48
8585;BME280;7180;52.742;11.420;2023-05-11T12:12:18;98980.84;;;22.17;56.57
8585;BME280;7180;52.742;11.420;2023-05-11T12:14:44;98977.41;;;22.43;56.44
8585;BME280;7180;52.742;11.420;2023-05-11T12:17:14;98991.25;;;22.66;56.07
8585;BME280;7180;52.742;11.420;2023-05-11T12:19:44;98929.22;;;22.76;55.55
8585;BME280;7180;52.742;11.420;2023-05-11T12:22:10;98983.63;;;23.02;55.53
8585;BME280;7180;52.742;11.420;2023-05-11T12:24:38;98955.56;;;23.37;54.45
8585;BME280;7180;52.742;11.420;2023-05-11T12:27:04;98870.97;;;23.41;53.76
8585;BME280;7180;52.742;11.420;2023-05-11T12:29:30;98925.91;;;23.06;54.57
8585;BME280;7180;52.742;11.420;2023-05-11T12:31:56;98998.66;;;22.64;56.02
8585;BME280;7180;52.742;11.420;2023-05-11T12:34:21;99013.88;;;22.44;55.80
8585;BME280;7180;52.742;11.420;2023-05-11T12:36:52;98906.13;;;22.29;55.06
8585;BME280;7180;52.742;11.420;2023-05-11T12:39:25;98928.78;;;22.33;55.02
8585;BME280;7180;52.742;11.420;2023-05-11T12:41:52;99003.84;;;22.72;55.35
8585;BME280;7180;52.742;11.420;2023-05-11T12:44:18;99020.66;;;22.46;55.69
8585;BME280;7180;52.742;11.420;2023-05-11T12:46:48;99023.97;;;22.42;55.94
8585;BME280;7180;52.742;11.420;2023-05-11T12:49:18;99044.25;;;22.77;55.18
8585;BME280;7180;52.742;11.420;2023-05-11T12:54:11;99004.59;;;22.40;55.80
8585;BME280;7180;52.742;11.420;2023-05-11T12:56:49;98937.88;;;22.84;54.11
8585;BME280;7180;52.742;11.420;2023-05-11T13:01:52;98921.97;;;23.02;53.71
8585;BME280;7180;52.742;11.420;2023-05-11T13:04:17;98980.75;;;23.10;54.36
8585;BME280;7180;52.742;11.420;2023-05-11T13:06:45;98986.75;;;22.99;54.40
8585;BME280;7180;52.742;11.420;2023-05-11T13:09:20;99047.09;;;22.62;55.42
8585;BME280;7180;52.742;11.420;2023-05-11T13:11:46;98994.75;;;22.73;54.88
8585;BME280;7180;52.742;11.420;2023-05-11T13:14:15;98982.19;;;23.13;53.75
8585;BME280;7180;52.742;11.420;2023-05-11T13:16:51;99038.69;;;22.98;54.78
8585;BME280;7180;52.742;11.420;2023-05-11T13:19:26;98977.69;;;22.87;54.55
8585;BME280;7180;52.742;11.420;2023-05-11T13:21:52;99035.25;;;22.31;55.71
8585;BME280;7180;52.742;11.420;2023-05-11T13:24:19;99036.69;;;22.33;55.89
8585;BME280;7180;52.742;11.420;2023-05-11T13:26:45;99038.72;;;22.18;56.21
8585;BME280;7180;52.742;11.420;2023-05-11T13:29:10;99123.97;;;22.15;56.76